Terminal Aerodrome Forecast
Issued by NWS

Home | Current Version | Previous Version | Text Only | Print | Product List | Glossary On
Versions: 1 2 3 4 5 6 7 8 9 10 11 12 13 14
000
FTUS44 KMOB 030525
TAFBFM
TAF
KBFM 030525Z 0306/0406 06011KT P6SM OVC100
      TEMPO 0309/0313 -RA
     FM031500 07015G22KT P6SM VCSH BKN070 OVC100=

USA.gov is the U.S. government's official web portal to all federal, state and local government web resources and services.